Time;durP1;ratioP1;P1;durP2;ratioP2;P2;SDS_P1;SDS_P2;PMS_P1;PMS_P2;Temp;Humidity;BMP_temperature;BMP_pressure;BME280_temperature;BME280_humidity;BME280_pressure;Samples;Min_cycle;Max_cycle;Signal;HPM_P1;HPM_P2
2021/09/09 00:01:35;;;;;;;;;24.00;21.00;;;;;9.87;90.85;100157.00;6747222;19;2498096;-51
2021/09/09 00:04:04;;;;;;;;;22.50;20.50;;;;;9.83;91.78;100150.09;6746641;19;2498088;-51
2021/09/09 00:06:32;;;;;;;;;24.50;24.00;;;;;9.66;92.82;100145.56;6748697;19;2854332;-50
2021/09/09 00:09:01;;;;;;;;;24.50;21.00;;;;;9.59;92.72;100142.34;6748494;19;2836656;-50
2021/09/09 00:11:29;;;;;;;;;23.00;23.00;;;;;9.78;92.27;100142.28;6746340;19;2839776;-49
2021/09/09 00:13:58;;;;;;;;;25.50;24.50;;;;;10.18;90.86;100145.56;6745958;19;2850197;-50
2021/09/09 00:16:26;;;;;;;;;25.00;24.00;;;;;10.23;89.66;100148.88;6749242;19;2498100;-49
2021/09/09 00:18:53;;;;;;;;;23.00;21.00;;;;;10.43;89.31;100152.38;6747800;19;2498100;-51
2021/09/09 00:21:22;;;;;;;;;26.00;21.50;;;;;10.26;89.79;100146.03;6745607;19;2847044;-48
2021/09/09 00:23:50;;;;;;;;;26.50;22.00;;;;;10.20;90.49;100146.34;6745544;19;2847064;-50
2021/09/09 00:26:18;;;;;;;;;25.50;23.50;;;;;10.54;89.05;100142.78;6745177;19;2498136;-52
2021/09/09 00:28:46;;;;;;;;;25.00;23.50;;;;;10.69;88.13;100146.44;6743857;19;2844969;-49
2021/09/09 00:31:15;;;;;;;;;21.50;21.50;;;;;10.35;89.18;100151.88;6748429;19;2834524;-52
2021/09/09 00:33:46;;;;;;;;;28.00;23.50;;;;;10.40;89.35;100155.19;6746027;19;2493941;-50
2021/09/09 00:36:14;;;;;;;;;22.50;20.50;;;;;10.53;89.52;100156.25;6747652;19;2847033;-49
2021/09/09 00:38:43;;;;;;;;;23.50;23.50;;;;;10.15;90.83;100155.59;6746366;19;2843916;-49
2021/09/09 00:41:10;;;;;;;;;23.00;20.00;;;;;9.81;91.91;100152.84;6753726;19;2498190;-51
2021/09/09 00:43:39;;;;;;;;;27.00;23.50;;;;;9.83;91.66;100148.28;6747604;19;2842902;-50
2021/09/09 00:46:07;;;;;;;;;27.00;25.50;;;;;9.61;92.01;100152.97;6744232;19;2498130;-51
2021/09/09 00:48:34;;;;;;;;;24.50;24.00;;;;;9.31;92.83;100158.91;6743078;19;2485597;-49
2021/09/09 00:51:02;;;;;;;;;27.50;25.00;;;;;10.02;91.25;100163.41;6742354;19;2498176;-49
2021/09/09 00:53:30;;;;;;;;;27.00;23.00;;;;;10.00;90.79;100154.56;6744364;19;2829369;-50
2021/09/09 00:55:59;;;;;;;;;29.50;25.50;;;;;10.04;91.06;100161.53;6745553;19;2855405;-51
2021/09/09 00:58:27;;;;;;;;;29.00;25.00;;;;;10.01;90.93;100156.31;6742701;19;2852264;-51
2021/09/09 01:00:56;;;;;;;;;25.00;25.00;;;;;10.19;89.89;100146.44;6742448;19;2842874;-49
2021/09/09 01:03:24;;;;;;;;;25.00;23.00;;;;;10.09;89.64;100151.44;6746994;19;2828291;-49
2021/09/09 01:05:53;;;;;;;;;32.67;24.67;;;;;10.09;90.88;100162.16;6751111;19;2870021;-51
2021/09/09 01:08:22;;;;;;;;;31.50;26.50;;;;;10.14;91.47;100154.75;6778868;19;2852268;-50
2021/09/09 01:10:50;;;;;;;;;30.50;25.50;;;;;10.28;90.23;100149.53;6748092;19;2840949;-50
2021/09/09 01:13:19;;;;;;;;;25.00;22.50;;;;;9.65;92.17;100150.06;6744392;19;2847071;-52
2021/09/09 01:15:47;;;;;;;;;28.00;27.00;;;;;9.48;94.06;100147.38;6745051;19;2854340;-50
2021/09/09 01:18:16;;;;;;;;;25.00;23.50;;;;;9.14;94.20;100151.69;6743069;19;2838712;-52
2021/09/09 01:20:44;;;;;;;;;23.50;22.00;;;;;8.74;94.42;100139.31;6745045;19;2493933;-50
2021/09/09 01:23:11;;;;;;;;;22.00;21.00;;;;;8.71;94.70;100147.50;6745124;19;2498139;-48
2021/09/09 01:25:39;;;;;;;;;22.00;20.00;;;;;8.71;94.30;100150.16;6747323;19;2498556;-51
2021/09/09 01:28:07;;;;;;;;;25.00;24.00;;;;;9.42;91.00;100145.84;6745024;19;2839749;-51
2021/09/09 01:30:38;;;;;;;;;21.00;21.00;;;;;9.74;90.52;100148.75;6745368;19;2496104;-49
2021/09/09 01:33:07;;;;;;;;;25.00;24.00;;;;;9.34;91.33;100141.81;6746049;19;2838822;-52
2021/09/09 01:35:35;;;;;;;;;23.50;23.50;;;;;9.42;91.37;100144.97;6746213;19;2839749;-53
2021/09/09 01:38:04;;;;;;;;;24.50;24.00;;;;;9.12;92.29;100152.72;6742093;19;2843928;-49
2021/09/09 01:40:32;;;;;;;;;31.00;24.00;;;;;9.27;91.91;100151.97;6745190;19;2498131;-50
2021/09/09 01:43:01;;;;;;;;;27.00;23.50;;;;;9.58;90.88;100153.97;6743916;19;2824156;-51
2021/09/09 01:45:29;;;;;;;;;23.50;22.50;;;;;9.35;91.95;100144.44;6745491;19;2845018;-51
2021/09/09 01:48:00;;;;;;;;;24.00;24.00;;;;;9.60;91.45;100145.88;6745135;19;2843916;-52
2021/09/09 01:50:29;;;;;;;;;32.00;28.00;;;;;9.39;92.92;100146.00;6743691;19;2847036;-50
2021/09/09 01:52:58;;;;;;;;;34.00;31.67;;;;;9.74;91.86;100147.84;6743288;19;3607443;-50
2021/09/09 01:55:27;;;;;;;;;32.50;24.00;;;;;9.70;91.80;100144.47;6777812;19;2869956;-51
2021/09/09 01:57:55;;;;;;;;;35.00;27.50;;;;;9.72;92.31;100147.94;6743990;19;2855370;-50
2021/09/09 02:00:24;;;;;;;;;28.00;26.00;;;;;9.22;93.88;100151.34;6744564;19;2843912;-53
2021/09/09 02:02:53;;;;;;;;;31.00;28.67;;;;;9.26;94.66;100152.91;6744518;19;2868946;-50
2021/09/09 02:05:21;;;;;;;;;27.50;24.00;;;;;9.21;93.25;100153.13;6780022;19;2846026;-51
2021/09/09 02:07:50;;;;;;;;;30.00;27.50;;;;;8.57;94.84;100151.69;6742095;19;2847691;-51
2021/09/09 02:10:20;;;;;;;;;27.00;27.00;;;;;8.23;95.70;100140.75;6746925;19;2498096;-51
2021/09/09 02:12:49;;;;;;;;;26.50;23.00;;;;;8.49;94.87;100152.97;6742832;19;2498104;-49
2021/09/09 02:15:18;;;;;;;;;26.50;22.50;;;;;8.29;94.06;100149.38;6744422;19;2841840;-48
2021/09/09 02:17:46;;;;;;;;;26.50;20.00;;;;;8.50;93.10;100152.03;6743434;19;2498104;-51
2021/09/09 02:20:14;;;;;;;;;25.00;24.00;;;;;8.14;94.65;100145.56;6745968;19;2498092;-50
2021/09/09 02:22:42;;;;;;;;;21.00;21.00;;;;;8.66;93.31;100145.06;6743278;19;2498128;-48
2021/09/09 02:25:11;;;;;;;;;28.00;25.00;;;;;8.05;94.68;100153.97;6744607;19;2498128;-49
2021/09/09 02:27:38;;;;;;;;;27.00;24.00;;;;;8.75;93.52;100147.28;6743390;19;2498112;-50
2021/09/09 02:30:08;;;;;;;;;25.00;22.50;;;;;7.90;94.69;100150.19;6742684;19;2833519;-49
2021/09/09 02:32:36;;;;;;;;;21.50;20.00;;;;;7.90;95.98;100149.31;6741781;19;2498092;-50
2021/09/09 02:35:06;;;;;;;;;28.00;26.50;;;;;8.71;93.43;100152.84;6742497;19;2843920;-51
2021/09/09 02:37:34;;;;;;;;;27.00;23.50;;;;;8.13;94.35;100157.19;6742814;19;2845995;-50
2021/09/09 02:40:04;;;;;;;;;28.50;26.50;;;;;7.94;95.92;100156.25;6742319;19;2839784;-50
2021/09/09 02:42:32;;;;;;;;;24.00;21.00;;;;;7.83;96.12;100150.50;6743240;19;2496052;-52
2021/09/09 02:45:01;;;;;;;;;28.50;23.50;;;;;8.22;95.92;100149.72;6743407;19;2839777;-51
2021/09/09 02:47:30;;;;;;;;;26.50;25.00;;;;;8.45;93.89;100151.38;6744206;19;2843921;-51
2021/09/09 02:49:57;;;;;;;;;25.00;22.00;;;;;8.35;95.00;100153.56;6749343;19;2498096;-51
2021/09/09 02:52:25;;;;;;;;;32.00;25.00;;;;;8.21;94.51;100147.94;6748146;19;2498096;-49
2021/09/09 02:54:53;;;;;;;;;29.00;27.00;;;;;7.85;96.34;100148.66;6748436;19;2834585;-49
2021/09/09 02:57:22;;;;;;;;;31.50;26.00;;;;;7.61;96.89;100148.75;6747706;19;2840783;-49
2021/09/09 02:59:51;;;;;;;;;24.00;22.50;;;;;7.62;97.53;100147.81;6746119;19;2844981;-49
2021/09/09 03:02:20;;;;;;;;;23.00;23.00;;;;;7.55;97.22;100146.31;6748433;19;2841894;-48
2021/09/09 03:04:48;;;;;;;;;21.50;18.00;;;;;7.36;97.79;100145.34;6757259;19;2837750;-51
2021/09/09 03:07:15;;;;;;;;;25.00;24.00;;;;;7.75;97.42;100139.28;6750475;19;2498095;-49
2021/09/09 03:09:44;;;;;;;;;27.00;22.00;;;;;7.51;97.49;100141.19;6751526;19;2839859;-50
2021/09/09 03:12:12;;;;;;;;;22.00;22.00;;;;;7.76;97.15;100146.34;6748122;19;2826244;-49
2021/09/09 03:14:40;;;;;;;;;29.50;26.00;;;;;7.80;97.96;100139.94;6750270;19;2498134;-48
2021/09/09 03:17:10;;;;;;;;;29.00;26.00;;;;;7.38;98.20;100139.00;6747769;19;2843919;-49
2021/09/09 03:19:39;;;;;;;;;27.50;24.50;;;;;7.40;98.23;100137.16;6748589;19;2844969;-49
2021/09/09 03:22:08;;;;;;;;;27.50;25.00;;;;;7.42;98.42;100135.25;6749482;19;2836632;-49
2021/09/09 03:24:36;;;;;;;;;27.00;23.00;;;;;7.29;99.57;100135.84;6750482;19;2851214;-50
2021/09/09 03:27:05;;;;;;;;;29.50;26.50;;;;;7.33;99.86;100132.97;6748133;19;2834545;-50
2021/09/09 03:29:34;;;;;;;;;29.00;27.00;;;;;7.66;98.88;100141.41;6750426;19;2835602;-48
2021/09/09 03:32:01;;;;;;;;;22.00;21.00;;;;;7.62;99.11;100133.56;6748122;19;2496044;-47
2021/09/09 03:34:29;;;;;;;;;24.00;24.00;;;;;7.51;99.46;100136.69;6750068;19;2498111;-48
2021/09/09 03:36:57;;;;;;;;;30.00;23.50;;;;;7.57;99.19;100131.09;6751488;19;2843952;-49
2021/09/09 03:39:25;;;;;;;;;25.50;22.00;;;;;7.67;100.00;100123.56;6745857;19;2498187;-49
2021/09/09 03:41:53;;;;;;;;;30.00;21.00;;;;;8.03;98.55;100123.78;6746806;19;2858526;-49
2021/09/09 03:44:21;;;;;;;;;22.50;21.50;;;;;8.42;95.73;100130.97;6746883;19;2498136;-49
2021/09/09 03:46:50;;;;;;;;;32.50;22.00;;;;;8.52;94.94;100132.28;6748930;19;2851219;-47
2021/09/09 03:49:18;;;;;;;;;32.50;25.50;;;;;8.43;95.22;100137.22;6747016;19;2850228;-50
2021/09/09 03:51:47;;;;;;;;;30.00;26.00;;;;;8.60;95.20;100133.75;6750323;19;2840807;-50
2021/09/09 03:54:15;;;;;;;;;27.00;23.50;;;;;8.47;95.78;100130.75;6750052;19;2848090;-47
2021/09/09 03:56:44;;;;;;;;;29.00;25.50;;;;;8.35;96.58;100135.72;6749393;19;2853290;-47
2021/09/09 03:59:12;;;;;;;;;24.50;24.00;;;;;8.56;95.60;100123.19;6747737;19;2841861;-46
2021/09/09 04:01:40;;;;;;;;;25.00;23.00;;;;;8.51;95.73;100138.59;6746861;19;2498154;-47
2021/09/09 04:04:09;;;;;;;;;24.50;21.50;;;;;8.59;95.61;100129.34;6748351;19;2834561;-49
2021/09/09 04:06:36;;;;;;;;;25.50;24.00;;;;;8.43;94.75;100131.84;6750596;19;2498128;-52
2021/09/09 04:09:05;;;;;;;;;25.00;22.00;;;;;8.49;95.49;100131.56;6745699;19;3577255;-57
2021/09/09 04:11:35;;;;;;;;;29.00;23.00;;;;;8.48;95.07;100125.34;6749716;19;2856443;-56
2021/09/09 04:14:04;;;;;;;;;27.00;23.50;;;;;8.50;95.56;100115.41;6748393;19;2498147;-57
2021/09/09 04:16:32;;;;;;;;;24.00;22.50;;;;;8.68;95.67;100124.41;6745772;19;2852282;-56
2021/09/09 04:19:01;;;;;;;;;23.50;22.00;;;;;8.51;95.39;100124.34;6745122;19;2848149;-56
2021/09/09 04:21:29;;;;;;;;;21.00;20.00;;;;;8.90;93.86;100131.44;6746737;19;2498100;-55
2021/09/09 04:23:59;;;;;;;;;28.00;26.00;;;;;8.45;95.83;100130.84;6746746;19;2850276;-57
2021/09/09 04:26:27;;;;;;;;;23.50;23.00;;;;;8.91;94.36;100130.50;6749281;19;2835591;-56
2021/09/09 04:28:56;;;;;;;;;29.00;24.50;;;;;8.84;93.52;100129.91;6743025;19;2844961;-56
2021/09/09 04:31:24;;;;;;;;;31.50;27.00;;;;;8.78;94.80;100132.88;6747531;19;2844985;-56
2021/09/09 04:33:53;;;;;;;;;25.50;25.50;;;;;8.44;95.65;100137.13;6749245;19;2498131;-56
2021/09/09 04:36:21;;;;;;;;;29.00;26.50;;;;;8.32;97.17;100142.97;6748209;19;2845005;-57
2021/09/09 04:38:50;;;;;;;;;29.00;25.50;;;;;8.61;96.02;100136.38;6743628;19;2843936;-57
2021/09/09 04:41:18;;;;;;;;;28.50;23.50;;;;;8.59;96.64;100138.25;6745494;19;2858502;-56
2021/09/09 04:43:47;;;;;;;;;27.50;25.00;;;;;8.13;96.29;100141.13;6743495;19;2845995;-56
2021/09/09 04:46:16;;;;;;;;;35.67;29.33;;;;;8.10;97.22;100138.59;6747129;19;3604310;-56
2021/09/09 04:48:45;;;;;;;;;26.50;26.00;;;;;8.18;95.72;100138.25;6777214;19;2844019;-57
2021/09/09 04:51:14;;;;;;;;;34.67;27.00;;;;;8.45;96.28;100144.22;6745357;19;3592994;-57
2021/09/09 04:53:42;;;;;;;;;28.50;26.50;;;;;8.22;96.22;100144.34;6777743;19;2498128;-57
2021/09/09 04:56:10;;;;;;;;;28.50;26.50;;;;;8.78;94.49;100140.91;6744445;19;2840799;-57
2021/09/09 04:58:40;;;;;;;;;37.67;28.67;;;;;8.69;95.59;100147.59;6743124;19;2861658;-57
2021/09/09 05:01:08;;;;;;;;;29.50;24.00;;;;;8.90;95.40;100145.72;6778689;19;2836669;-56
2021/09/09 05:03:38;;;;;;;;;38.00;29.33;;;;;8.95;95.00;100143.69;6744602;19;2863711;-56
2021/09/09 05:06:06;;;;;;;;;32.00;30.00;;;;;9.15;94.70;100147.19;6780058;19;2858498;-55
2021/09/09 05:08:36;;;;;;;;;35.00;27.33;;;;;9.31;94.42;100147.31;6740935;19;2866858;-57
2021/09/09 05:11:07;;;;;;;;;31.00;27.00;;;;;9.49;93.67;100145.56;6777719;19;2850204;-57
2021/09/09 05:13:37;;;;;;;;;36.00;25.33;;;;;9.71;93.21;100151.56;6742294;19;2888759;-57
2021/09/09 05:16:06;;;;;;;;;31.00;30.00;;;;;9.80;93.00;100145.75;6775466;19;2740810;-56
2021/09/09 05:18:34;;;;;;;;;31.50;30.00;;;;;9.94;93.37;100145.03;6774609;19;2854355;-57
2021/09/09 05:21:03;;;;;;;;;30.50;27.00;;;;;10.06;92.98;100146.22;6743060;19;2857492;-57
2021/09/09 05:23:32;;;;;;;;;30.67;29.33;;;;;10.15;92.68;100150.22;6743958;19;2856477;-56
2021/09/09 05:26:02;;;;;;;;;35.67;34.00;;;;;10.42;92.06;100153.31;6777205;19;3614710;-56
2021/09/09 05:28:31;;;;;;;;;46.33;39.00;;;;;10.47;91.39;100146.72;6775434;19;3598064;-57
2021/09/09 05:31:00;;;;;;;;;50.00;38.33;;;;;10.89;88.80;100153.41;6777022;19;3621119;-51
2021/09/09 05:33:29;;;;;;;;;36.50;33.50;;;;;11.14;87.28;100157.41;6776320;19;2848117;-58
2021/09/09 05:35:58;;;;;;;;;33.33;29.33;;;;;11.17;87.00;100159.94;6746228;19;2850174;-57
2021/09/09 05:38:27;;;;;;;;;33.67;31.67;;;;;11.17;87.59;100158.09;6775487;19;2860588;-57
2021/09/09 05:40:56;;;;;;;;;38.67;33.33;;;;;11.28;86.82;100159.31;6773029;19;2852340;-57
2021/09/09 05:43:26;;;;;;;;;36.33;30.67;;;;;12.36;82.55;100165.50;6775967;19;3623090;-57
2021/09/09 05:45:55;;;;;;;;;38.33;26.33;;;;;11.94;83.82;100166.28;6779164;19;3619965;-57
2021/09/09 05:48:24;;;;;;;;;30.00;26.00;;;;;11.69;85.51;100166.81;6776608;19;2850205;-57
2021/09/09 05:50:54;;;;;;;;;27.33;26.00;;;;;11.99;84.16;100162.34;6776626;19;2842905;-57
2021/09/09 05:53:23;;;;;;;;;31.33;28.00;;;;;12.87;80.59;100165.03;6776339;19;3589751;-57
2021/09/09 05:55:51;;;;;;;;;27.00;27.00;;;;;13.86;75.93;100173.88;6782034;19;3598056;-57
2021/09/09 05:58:21;;;;;;;;;27.00;26.00;;;;;13.14;78.25;100170.50;6741867;19;2852261;-58
2021/09/09 06:00:50;;;;;;;;;27.67;21.00;;;;;13.26;77.57;100177.81;6774638;19;2860585;-58
2021/09/09 06:03:28;;;;;;;;;30.33;26.67;;;;;13.59;76.16;100166.66;6774484;19;2849213;-58
2021/09/09 06:06:04;;;;;;;;;29.00;25.50;;;;;13.86;74.89;100168.47;6778940;19;2833503;-58
2021/09/09 06:08:36;;;;;;;;;23.67;23.00;;;;;14.47;73.08;100166.06;6740945;19;2844957;-58
2021/09/09 06:11:05;;;;;;;;;28.33;26.33;;;;;14.91;71.59;100170.22;6779197;19;2843986;-55
2021/09/09 06:13:35;;;;;;;;;24.33;23.33;;;;;17.51;62.34;100181.78;6780880;19;3581437;-55
2021/09/09 06:16:04;;;;;;;;;24.50;24.00;;;;;16.04;65.62;100176.34;6777284;19;2838779;-57
2021/09/09 06:18:34;;;;;;;;;25.50;22.50;;;;;16.71;64.53;100171.06;6743944;19;2836664;-57
2021/09/09 06:21:04;;;;;;;;;28.00;27.67;;;;;16.12;67.22;100171.19;6744907;19;3600151;-56
2021/09/09 06:23:33;;;;;;;;;26.67;26.00;;;;;16.22;66.72;100172.22;6780960;19;2844957;-57
2021/09/09 06:26:19;;;;;;;;;22.50;21.50;;;;;15.82;69.79;100177.09;6785779;19;2826200;-56
2021/09/09 06:28:48;;;;;;;;;27.00;26.00;;;;;16.02;68.25;100180.00;6751191;19;2858558;-58
2021/09/09 06:31:17;;;;;;;;;26.67;26.00;;;;;17.34;65.11;100179.59;6795034;19;3600163;-58
2021/09/09 06:33:45;;;;;;;;;26.33;23.33;;;;;21.20;52.25;100190.34;6756848;19;3583499;-59
2021/09/09 06:36:14;;;;;;;;;24.50;24.00;;;;;22.08;50.19;100193.41;6752912;19;2846031;-59
2021/09/09 06:38:43;;;;;;;;;24.00;20.00;;;;;20.29;53.49;100197.28;6749033;19;2833512;-58
2021/09/09 06:41:11;;;;;;;;;24.33;21.67;;;;;16.48;66.46;100190.97;6756603;19;3574181;-58
2021/09/09 06:43:41;;;;;;;;;26.00;25.00;;;;;15.91;69.66;100181.81;6724901;19;2838715;-57
2021/09/09 06:46:09;;;;;;;;;25.00;25.00;;;;;15.92;70.73;100184.41;6785476;19;2843903;-57
2021/09/09 06:48:38;;;;;;;;;27.67;25.33;;;;;16.24;69.40;100184.66;6755636;19;3585568;-58
2021/09/09 06:51:06;;;;;;;;;21.00;20.50;;;;;15.90;71.86;100180.94;6752153;19;2841851;-56
2021/09/09 06:53:35;;;;;;;;;28.50;24.00;;;;;16.46;70.45;100183.84;6752264;19;2846031;-57
2021/09/09 06:56:04;;;;;;;;;27.67;22.67;;;;;16.29;70.22;100189.69;6751557;19;3584538;-58
2021/09/09 06:58:33;;;;;;;;;19.00;18.50;;;;;16.28;70.39;100190.69;6784009;19;2843911;-58
2021/09/09 07:01:02;;;;;;;;;17.00;13.33;;;;;16.52;70.12;100187.06;6750310;19;2825263;-57
2021/09/09 07:03:31;;;;;;;;;23.00;19.00;;;;;17.16;68.58;100187.38;6783079;19;2835575;-58
2021/09/09 07:06:00;;;;;;;;;23.50;20.50;;;;;16.83;68.98;100186.41;6751305;19;2845999;-58
2021/09/09 07:08:28;;;;;;;;;22.50;21.00;;;;;17.37;67.25;100192.03;6749330;19;2831408;-57
2021/09/09 07:10:56;;;;;;;;;20.67;20.33;;;;;17.46;66.85;100200.31;6756768;19;3564870;-58
2021/09/09 07:13:28;;;;;;;;;21.50;18.50;;;;;17.70;66.39;100191.97;6750269;19;2831443;-58
2021/09/09 07:16:00;;;;;;;;;16.50;16.50;;;;;17.95;64.60;100201.66;6749726;19;2825210;-58
2021/09/09 07:18:29;;;;;;;;;19.50;18.00;;;;;18.07;64.02;100197.06;6750402;19;2831424;-58
2021/09/09 07:20:58;;;;;;;;;18.50;18.50;;;;;19.04;61.72;100214.06;6750328;19;2828291;-58
2021/09/09 07:23:25;;;;;;;;;14.50;14.00;;;;;22.86;49.43;100216.50;6754732;19;2496028;-58
2021/09/09 07:25:53;;;;;;;;;12.00;11.00;;;;;19.00;59.46;100209.88;6761718;19;2781422;-58
2021/09/09 07:28:21;;;;;;;;;24.50;19.00;;;;;18.56;62.40;100200.13;6752582;19;2481422;-58
2021/09/09 07:30:48;;;;;;;;;18.50;18.50;;;;;18.88;61.72;100200.09;6753276;19;2498111;-58
2021/09/09 07:33:17;;;;;;;;;17.50;17.00;;;;;19.03;60.49;100204.16;6751176;19;2833559;-58
2021/09/09 07:35:44;;;;;;;;;19.50;18.00;;;;;18.84;61.25;100198.63;6751530;19;2498136;-58
2021/09/09 07:38:13;;;;;;;;;20.00;18.50;;;;;18.92;59.47;100206.97;6753079;19;2829337;-58
2021/09/09 07:40:41;;;;;;;;;22.00;18.00;;;;;19.59;59.64;100208.25;6752575;19;2836628;-57
2021/09/09 07:43:10;;;;;;;;;21.00;18.00;;;;;19.87;57.93;100208.47;6749906;19;2816826;-57
2021/09/09 07:45:38;;;;;;;;;20.00;18.33;;;;;20.37;57.09;100214.66;6756538;19;2833495;-58
2021/09/09 07:48:06;;;;;;;;;18.00;16.33;;;;;20.01;56.88;100205.34;6788806;19;3560585;-58
2021/09/09 07:50:35;;;;;;;;;19.50;17.00;;;;;20.04;55.96;100209.66;6752720;19;2824168;-58
2021/09/09 07:53:03;;;;;;;;;16.67;16.00;;;;;20.44;55.93;100214.09;6752820;19;2485616;-58
2021/09/09 07:55:32;;;;;;;;;20.00;17.50;;;;;20.33;56.53;100215.09;6783339;19;2836632;-58
2021/09/09 07:58:00;;;;;;;;;17.50;17.00;;;;;20.81;54.54;100214.19;6748931;19;2830374;-58
2021/09/09 08:00:30;;;;;;;;;16.00;16.00;;;;;21.26;54.61;100213.47;6749927;19;2804345;-58
2021/09/09 08:02:58;;;;;;;;;16.50;15.50;;;;;21.06;52.44;100209.94;6748379;19;2810579;-58
2021/09/09 08:05:27;;;;;;;;;17.33;16.33;;;;;21.42;52.61;100207.38;6748336;19;3568960;-58
2021/09/09 08:07:55;;;;;;;;;17.50;14.50;;;;;21.50;52.86;100209.34;6748760;19;2793945;-58
2021/09/09 08:10:24;;;;;;;;;15.00;15.00;;;;;21.68;52.24;100216.56;6754305;19;2487704;-58
2021/09/09 08:12:52;;;;;;;;;18.00;17.00;;;;;21.72;52.08;100214.38;6783130;19;3557421;-58
2021/09/09 08:15:20;;;;;;;;;14.33;12.00;;;;;21.32;52.37;100207.38;6748125;19;3529297;-58
2021/09/09 08:17:49;;;;;;;;;20.00;16.00;;;;;21.60;51.45;100211.03;6781762;19;2816849;-58
2021/09/09 08:20:18;;;;;;;;;16.00;15.33;;;;;21.38;49.65;100203.22;6749890;19;3542885;-58
2021/09/09 08:22:46;;;;;;;;;13.33;13.00;;;;;21.84;50.84;100215.06;6745373;19;3517890;-57
2021/09/09 08:25:14;;;;;;;;;16.00;14.00;;;;;22.50;49.43;100209.19;6756930;19;2809664;-58
2021/09/09 08:27:43;;;;;;;;;14.00;13.33;;;;;22.68;48.56;100206.44;6781728;19;3531396;-58
2021/09/09 08:30:11;;;;;;;;;11.67;11.67;;;;;22.53;48.15;100211.63;6747855;19;3513685;-57
2021/09/09 08:32:41;;;;;;;;;11.00;11.00;;;;;22.35;48.07;100206.19;6782005;19;3510579;-57
2021/09/09 08:35:10;;;;;;;;;14.67;12.00;;;;;22.60;47.09;100208.28;6784809;19;3523063;-57
2021/09/09 08:37:38;;;;;;;;;12.00;12.00;;;;;22.89;45.88;100203.34;6792725;19;2779378;-57
2021/09/09 08:40:09;;;;;;;;;13.00;13.00;;;;;22.38;48.96;100198.66;6782581;19;3519954;-57
2021/09/09 08:42:42;;;;;;;;;17.00;14.33;;;;;21.99;48.04;100191.63;6754933;19;2808496;-58
2021/09/09 08:45:13;;;;;;;;;14.67;13.00;;;;;22.58;48.34;100195.59;6781618;19;3526180;-57
2021/09/09 08:47:46;;;;;;;;;14.33;9.67;;;;;22.90;47.88;100188.59;6745979;19;3498144;-58
2021/09/09 08:50:18;;;;;;;;;12.67;12.33;;;;;23.34;46.65;100184.94;6780162;19;3509587;-57
2021/09/09 08:52:49;;;;;;;;;13.00;11.33;;;;;22.95;46.27;100188.97;6750512;19;3510585;-57
2021/09/09 08:55:19;;;;;;;;;14.67;10.67;;;;;23.36;46.08;100183.75;6781385;19;3513720;-58
2021/09/09 08:57:47;;;;;;;;;10.67;10.33;;;;;23.07;45.58;100188.75;6780669;19;2781481;-58
2021/09/09 09:00:16;;;;;;;;;12.67;11.33;;;;;23.48;45.89;100191.66;6792579;19;2792912;-58
2021/09/09 09:02:54;;;;;;;;;9.00;9.00;;;;;23.71;44.33;100179.06;6784816;19;2739781;-57
2021/09/09 09:05:25;;;;;;;;;11.60;10.40;;;;;23.70;44.27;100171.88;6813359;19;2784539;-57
2021/09/09 09:08:04;;;;;;;;;14.00;11.00;;;;;23.33;44.00;100167.66;6745471;19;3510591;-56
2021/09/09 09:10:34;;;;;;;;;13.00;10.67;;;;;23.87;42.64;100170.91;6780712;19;3515759;-57
2021/09/09 09:13:02;;;;;;;;;11.33;10.00;;;;;24.32;42.27;100172.31;6784603;19;2785572;-57
2021/09/09 09:15:33;;;;;;;;;8.80;8.80;;;;;24.44;41.37;100167.38;6815128;19;2750162;-57
2021/09/09 09:18:10;;;;;;;;;10.80;9.60;;;;;24.54;41.68;100164.47;6776351;19;2771002;-57
2021/09/09 09:20:53;;;;;;;;;7.00;7.00;;;;;24.32;40.45;100161.34;6764698;19;2733550;-55
2021/09/09 09:23:27;;;;;;;;;8.00;8.00;;;;;24.48;40.01;100163.25;6784265;19;2750252;-57
2021/09/09 09:26:01;;;;;;;;;8.00;8.00;;;;;24.62;39.04;100153.47;6812764;19;2746026;-57
2021/09/09 09:28:50;;;;;;;;;13.33;10.33;;;;;24.41;39.33;100155.84;6742725;19;3513682;-57
2021/09/09 09:31:30;;;;;;;;;8.00;7.00;;;;;25.00;38.15;100150.13;6812206;19;2748074;-57
2021/09/09 09:34:05;;;;;;;;;11.80;9.00;;;;;24.53;40.22;100154.50;6781163;19;2780400;-58
2021/09/09 09:36:37;;;;;;;;;8.00;8.00;;;;;24.41;38.66;100145.75;6782744;19;2745987;-58
2021/09/09 09:39:20;;;;;;;;;10.67;9.00;;;;;25.15;39.51;100141.00;6761194;19;2766930;-57
2021/09/09 09:41:55;;;;;;;;;10.80;7.00;;;;;25.36;37.84;100145.03;6811147;19;2768914;-57
2021/09/09 09:44:41;;;;;;;;;9.67;8.00;;;;;24.86;36.54;100146.22;6748912;19;2764752;-58
2021/09/09 09:47:18;;;;;;;;;8.00;8.00;;;;;24.04;37.61;100143.50;6811754;19;2743916;-58
2021/09/09 09:49:55;;;;;;;;;7.80;7.80;;;;;25.31;37.49;100147.44;6780737;19;2748125;-58
2021/09/09 09:52:29;;;;;;;;;7.00;7.00;;;;;24.75;37.65;100145.53;6811742;19;2741841;-58
2021/09/09 09:55:03;;;;;;;;;9.60;7.00;;;;;25.59;35.92;100145.06;6811277;19;2762700;-59
2021/09/09 09:57:38;;;;;;;;;9.67;8.00;;;;;24.60;36.82;100141.78;6748149;19;2761619;-59
2021/09/09 10:00:08;;;;;;;;;9.40;8.00;;;;;24.44;36.87;100139.03;6811660;19;2744989;-59
2021/09/09 10:02:38;;;;;;;;;11.40;9.60;;;;;25.05;37.29;100143.03;6777540;19;2787707;-58
2021/09/09 10:05:08;;;;;;;;;11.00;11.00;;;;;24.53;37.18;100138.88;6746905;19;3513712;-58
2021/09/09 10:07:37;;;;;;;;;11.67;9.67;;;;;24.67;38.47;100137.34;6791671;19;2780400;-56
2021/09/09 10:10:06;;;;;;;;;12.00;8.00;;;;;24.94;37.97;100127.81;6781025;19;2767889;-56
2021/09/09 10:12:35;;;;;;;;;9.33;8.00;;;;;25.15;37.60;100126.34;6783115;19;2751203;-54
2021/09/09 10:15:06;;;;;;;;;9.20;7.80;;;;;24.82;37.53;100125.59;6814019;19;2754344;-56
2021/09/09 10:17:37;;;;;;;;;10.00;10.00;;;;;25.14;37.14;100125.47;6753586;19;2791830;-52
2021/09/09 10:20:39;;;;;;;;;11.00;10.00;;;;;24.75;37.55;100118.09;6810977;19;2791854;-52
2021/09/09 10:23:17;;;;;;;;;9.60;8.00;;;;;24.88;37.58;100119.41;6777773;19;2751258;-51
2021/09/09 10:25:57;;;;;;;;;8.00;8.00;;;;;25.44;37.25;100116.63;6775111;19;2741864;-58
2021/09/09 10:28:34;;;;;;;;;5.67;5.67;;;;;25.22;36.13;100110.03;6749903;19;2752254;-53
2021/09/09 10:31:24;;;;;;;;;8.40;7.00;;;;;25.33;37.21;100106.88;6810225;19;2747029;-56
2021/09/09 10:33:53;;;;;;;;;12.00;9.00;;;;;25.45;35.85;100091.69;6747969;19;2758494;-56
2021/09/09 10:36:41;;;;;;;;;9.33;8.33;;;;;25.60;35.24;100108.28;6792951;19;2751207;-56
2021/09/09 10:39:18;;;;;;;;;9.60;9.60;;;;;25.00;36.62;100090.50;6807262;19;2755378;-56
2021/09/09 10:41:48;;;;;;;;;11.20;9.20;;;;;25.52;36.02;100106.44;6778882;19;2786654;-55
2021/09/09 10:44:18;;;;;;;;;10.00;8.40;;;;;25.69;36.65;100098.06;6778160;19;2765822;-56
2021/09/09 10:46:49;;;;;;;;;9.40;8.00;;;;;25.72;36.51;100095.81;6775991;19;2754360;-55
2021/09/09 10:49:19;;;;;;;;;8.67;8.67;;;;;25.50;37.01;100083.75;6744530;19;2756447;-53
2021/09/09 10:52:12;;;;;;;;;9.33;9.00;;;;;25.96;36.21;100085.69;6779942;19;2764844;-53
2021/09/09 10:55:07;;;;;;;;;8.00;8.00;;;;;25.73;35.70;100080.19;6779418;19;3466811;-55
2021/09/09 10:57:36;;;;;;;;;8.00;8.00;;;;;25.80;36.08;100081.13;6793794;19;2730417;-53
2021/09/09 11:00:05;;;;;;;;;8.00;8.00;;;;;25.83;36.26;100080.78;6780090;19;2756490;-52
2021/09/09 11:02:45;;;;;;;;;11.20;8.80;;;;;25.66;36.46;100079.19;6808726;19;2770998;-53
2021/09/09 11:05:15;;;;;;;;;9.00;9.00;;;;;25.97;35.94;100081.91;6780713;19;2736739;-55
2021/09/09 11:07:44;;;;;;;;;9.00;9.00;;;;;25.28;36.08;100073.59;6777043;19;2754340;-56
2021/09/09 11:10:14;;;;;;;;;10.00;8.40;;;;;25.86;35.28;100074.94;6784581;19;2764760;-57
2021/09/09 11:13:00;;;;;;;;;9.00;9.00;;;;;26.11;35.28;100066.47;6766811;19;2744996;-56